NCAR-RAP Real-Time Weather Data

Output produced by METARs form (26 May 2022  07:52 UTC)
found at http://weather.rap.ucar.edu/surface/
 
KDTW 260734Z 17013KT 7SM BKN007 BKN025 OVC095 19/18 A2991 RMK AO2 RAE31 P0000 T01940183 $
KDTW 260653Z 16012KT 4SM RA BR BKN018 OVC065 19/18 A2991 RMK AO2 RAE16B51 SLP127 P0002 T01940183 $
KDTW 260651Z 16010KT 4SM RA BR BKN018 OVC065 19/18 A2992 RMK AO2 RAE16B51 P0000 $
KDTW 260553Z 18012KT 5SM -RA BR SCT022 BKN060 OVC095 19/18 A2993 RMK AO2 SLP131 P0012 60037 T01940183 10206 20189 58012 $
KDTW 260522Z 17010KT 5SM -RA BR SCT022 BKN060 OVC095 19/18 A2994 RMK AO2 P0008 T01890178 $
KDTW 260509Z 18009KT 4SM RA BR FEW008 BKN028 OVC065 19/18 A2994 RMK AO2 P0006 T01890178 $
KDTW 260453Z 18008KT 4SM RA BR SCT008 BKN035 OVC080 19/17 A2995 RMK AO2 SLP140 P0025 T01890172 402170111
KDTW 260448Z 19008KT 4SM RA BR SCT008 BKN035 OVC080 19/17 A2996 RMK AO2 P0023
KDTW 260438Z 18008KT 3SM +RA BR SCT008 BKN025 OVC045 19/17 A2996 RMK AO2 TWR VIS 4 P0020 T01890172
KDTW 260428Z 17011G16KT 3SM +RA BR BKN025 BKN055 OVC085 19/17 A2996 RMK AO2 TWR VIS 4 P0010 T01890172
KDTW 260353Z 14004KT 5SM RA BKN055 OVC110 19/16 A2995 RMK AO2 RAE14B51 SLP140 P0000 T01890156
KDTW 260253Z 00000KT 10SM -RA FEW050 BKN090 OVC120 19/15 A2996 RMK AO2 RAB49 SLP144 P0000 60000 T01890150 55005
KDTW 260153Z 11007KT 10SM FEW050 BKN200 19/14 A2996 RMK AO2 SLP143 T01940144
KDTW 260053Z 08006KT 10SM FEW050 SCT080 BKN180 20/14 A2996 RMK AO2 SLP145 T02000144
KDTW 252353Z 09007KT 10SM FEW050 SCT080 BKN180 21/14 A2998 RMK AO2 SLP150 60002 T02060144 10217 20183 56018
KDTW 252253Z 09007KT 10SM FEW045 SCT080 BKN160 21/14 A2999 RMK AO2 SLP155 T02110144
KDTW 252153Z 11011G18KT 10SM SCT045 BKN060 BKN140 21/16 A3001 RMK AO2 SLP162 T02110156
KDTW 252053Z 10007G17KT 10SM FEW030 BKN050 OVC065 20/16 A3003 RMK AO2 RAE1955 SLP170 P0000 60002 T02000156 58022
KDTW 252006Z 11008G17KT 8SM BKN030 OVC050 19/16 A3006 RMK AO2 RAE1955 P0000 T01940161
KDTW 251953Z 11008KT 3SM -RA OVC025 19/17 A3006 RMK AO2 TWR VIS 4 SLP178 P0002 T01940167
KDTW 251920Z 12008KT 3SM -RA OVC025 18/16 A3008 RMK AO2 TWR VIS 4 P0001 T01830156
KDTW 251853Z 12008G15KT 4SM -RA BKN035 OVC070 19/16 A3008 RMK AO2 SLP186 P0000 T01890156
KDTW 251753Z 10011KT 8SM -RA BKN045 OVC080 20/14 A3010 RMK AO2 RAB46 SLP192 P0000 60000 T02000139 10206 20150 58018
KDTW 251653Z 11010G19KT 10SM SCT030 OVC090 19/14 A3012 RMK AO2 SLP200 T01940144
KDTW 251645Z 09012G19KT 10SM SCT025 OVC090 19/14 A3012 RMK AO2 T01940144
KDTW 251553Z 11009KT 10SM OVC025 19/14 A3015 RMK AO2 SLP207 T01890139
KDTW 251534Z 11009KT 10SM OVC025 19/14 A3015 RMK AO2 T01890139
KDTW 251453Z 11008KT 10SM BKN035 OVC110 18/14 A3015 RMK AO2 SLP211 T01830139 58009
KDTW 251353Z 09011KT 10SM SCT040 BKN140 OVC230 18/13 A3016 RMK AO2 SLP212 T01830133
KDTW 251253Z 09008KT 10SM SCT050 BKN120 OVC220 17/13 A3018 RMK AO2 SLP217 T01670128
KDTW 251153Z 09008KT 10SM SCT050 BKN120 OVC220 15/12 A3018 RMK AO2 SLP219 T01500117 10150 20111 56002
KDTW 251053Z 07006KT 10SM FEW065 BKN120 OVC220 13/10 A3019 RMK AO2 SLP221 T01330100
KDTW 250953Z 05005KT 10SM SCT100 OVC220 12/08 A3018 RMK AO2 SLP219 T01170083
KDTW 250853Z 05003KT 10SM SCT100 OVC220 12/08 A3019 RMK AO2 SLP221 T01170078 55009
KDTW 250753Z 04005KT 10SM SCT100 OVC220 11/07 A3019 RMK AO2 SLP221 T01110067
KDTW 250653Z 03005KT 10SM SCT140 OVC220 12/07 A3019 RMK AO2 SLP224 T01170067
KDTW 250553Z 04006KT 10SM BKN200 12/06 A3021 RMK AO2 SLP231 T01170061 10189 20117 58006
KDTW 250453Z 05006KT 10SM SCT200 13/06 A3022 RMK AO2 SLP233 T01280061 402280072
KDTW 250353Z 06010KT 10SM FEW200 14/06 A3024 RMK AO2 SLP239 T01390056
KDTW 250253Z 08006KT 10SM FEW200 14/06 A3023 RMK AO2 SLP239 T01440056 53008
KDTW 250153Z 11007KT 10SM SCT200 16/07 A3022 RMK AO2 SLP233 T01610072
KDTW 250053Z 12004KT 10SM BKN180 17/08 A3021 RMK AO2 SLP230 T01720083
KDTW 242353Z 14007KT 10SM BKN200 19/09 A3021 RMK AO2 SLP230 T01890089 10228 20189
KDTW 242253Z 09009KT 10SM SCT200 20/07 A3019 RMK AO2 SLP225 T02000067
KDTW 242153Z 07008KT 10SM SCT200 21/06 A3020 RMK SLPNO T02060056
KDTW 242053Z 09008KT 10SM FEW250 21/04 A3021 RMK AO2 SLP229 T02110039 56011 PNO $
KDTW 241953Z 11005KT 10SM FEW250 23/05 A3021 RMK AO2 SLP230 T02280050 PNO $
KDTW 241853Z 06007KT 10SM FEW250 22/05 A3021 RMK AO2 SLP231 T02170050 PNO $
KDTW 241753Z 00000KT 10SM FEW250 21/04 A3024 RMK AO2 SLP241 T02110039 10211 20083 58009 PNO /
KDTW 241653Z 00000KT 10SM FEW250 21/04 A3026 RMK AO2 SLP246 T02060039 PNO $
KDTW 241553Z 04007KT 10SM FEW250 19/04 A3026 RMK AO2 SLP248 T01940044 PNO $
KDTW 241453Z 05006KT 10SM FEW140 SCT230 18/04 A3027 RMK AO2 SLP250 T01780039 58004 PNO $
KDTW 241353Z 05006KT 10SM FEW050 SCT140 SCT230 14/03 A3029 RMK AO2 SLP256 T01440028 PNO $
KDTW 241253Z 04008KT 10SM FEW050 SCT100 BKN210 11/03 A3028 RMK AO2 SLP254 T01060028 PNO $
KDTW 241153Z 03007KT 10SM FEW050 BKN100 OVC210 08/03 A3028 RMK AO2 SLP257 T00830033 53006 PNO $
KDTW 241053Z 02006KT 10SM FEW050 BKN100 OVC210 07/03 A3027 RMK AO2 SLP252 T00720033 PNO $
KDTW 240953Z 02007KT 10SM SCT050 BKN090 OVC210 07/03 A3027 RMK AO2 SLP253 T00720033 PNO $
KDTW 240853Z 04006KT 9SM SCT050 BKN085 OVC220 08/03 A3027 RMK AO2 SLP251 T00830033 55001 PNO $
KDTW 240753Z 02008KT 9SM SCT050 BKN075 OVC220 09/04 A3025 RMK AO2 SLP244 T00890039 PNO $